Yale, Virginia
Current Conditions -  °F | °C
As of 2:55 AM on Friday 31 Oct 2014 (Local Time) from KEMV Reporting Station
Clear Clear  
Wind Chill: 39°   Ceiling: Unl
Heat Index: 39°   Visibility: 10mi
Dew Point: 37°   Wind: 3mph
Humidity: 93%   Direction: 310°NW
Pressure: 30"   Gusts: NA
Location:  36.85°N, 77.29°W
Report Text: KEMV 310655Z AUTO 31003KT 10SM CLR 04/03 A3000 RMK AO2
Loading
Personal Weather Stations






























Interactive Weather Map New forecast layout! Learn more

10-Day Weather Forecast

Advertisements
Track Severe Weather on mobile